Terminal Aerodrome Forecast
Issued by NWS Tulsa, OK

Home | Current Version | Previous Version | Text Only | Print | Product List | Glossary On
Versions: 1 2 3 4 5 6 7 8 9 10 11 12 13 14 15 16
000
FTUS44 KTSA 071745
TAFFSM
TAF
KFSM 071745Z 0718/0818 22014KT P6SM VCTS SCT030 BKN040CB
      TEMPO 0718/0722 1SM +TSRA SCT015 OVC030CB
     FM080200 12008KT P6SM -RA SCT015 OVC050
     FM080700 18006KT 6SM -RA OVC015=

USA.gov is the U.S. government's official web portal to all federal, state and local government web resources and services.